Terminal Aerodrome Forecast
Issued by NWS

Home | Current Version | Previous Version | Graphics & Text | Print | Product List | Glossary On
Versions: 1 2 3 4 5 6 7 8 9 10 11 12 13
000
FTUS41 KCLE 271700
TAFFDY
TAF
KFDY 271738Z 2718/2818 18015G22KT P6SM BKN200
     FM280000 20014KT P6SM SCT050 BKN150 WS020/22045KT
     FM281000 22014KT P6SM BKN050 WS020/22050KT
     FM281400 22015G25KT 5SM -SHRA VCTS BKN020 OVC040CB=

USA.gov is the U.S. government's official web portal to all federal, state and local government web resources and services.